sensor_id;sensor_type;location;lat;lon;timestamp;P1;durP1;ratioP1;P2;durP2;ratioP2
74170;SDS011;62526;50.948;6.590;2023-02-15T00:01:08;37.63;;;19.93;;
74170;SDS011;62526;50.948;6.590;2023-02-15T00:03:34;40.77;;;18.83;;
74170;SDS011;62526;50.948;6.590;2023-02-15T00:06:01;37.13;;;18.33;;
74170;SDS011;62526;50.948;6.590;2023-02-15T00:08:27;34.97;;;18.17;;
74170;SDS011;62526;50.948;6.590;2023-02-15T00:11:03;38.90;;;19.90;;
74170;SDS011;62526;50.948;6.590;2023-02-15T00:13:36;36.00;;;17.83;;
74170;SDS011;62526;50.948;6.590;2023-02-15T00:16:03;39.50;;;18.93;;
74170;SDS011;62526;50.948;6.590;2023-02-15T00:18:30;32.83;;;18.27;;
74170;SDS011;62526;50.948;6.590;2023-02-15T00:20:57;34.20;;;18.67;;
74170;SDS011;62526;50.948;6.590;2023-02-15T00:23:24;37.13;;;18.87;;
74170;SDS011;62526;50.948;6.590;2023-02-15T00:25:51;35.57;;;18.37;;
74170;SDS011;62526;50.948;6.590;2023-02-15T00:28:18;38.50;;;20.00;;
74170;SDS011;62526;50.948;6.590;2023-02-15T00:30:44;39.97;;;20.03;;
74170;SDS011;62526;50.948;6.590;2023-02-15T00:33:11;36.30;;;18.80;;
74170;SDS011;62526;50.948;6.590;2023-02-15T00:35:37;38.67;;;20.03;;
74170;SDS011;62526;50.948;6.590;2023-02-15T00:38:04;36.93;;;19.37;;
74170;SDS011;62526;50.948;6.590;2023-02-15T00:40:31;36.50;;;19.33;;
74170;SDS011;62526;50.948;6.590;2023-02-15T00:42:57;36.07;;;18.97;;
74170;SDS011;62526;50.948;6.590;2023-02-15T00:45:24;38.80;;;18.37;;
74170;SDS011;62526;50.948;6.590;2023-02-15T00:47:50;33.53;;;18.00;;
74170;SDS011;62526;50.948;6.590;2023-02-15T00:50:18;33.87;;;17.90;;
74170;SDS011;62526;50.948;6.590;2023-02-15T00:52:45;32.67;;;18.27;;
74170;SDS011;62526;50.948;6.590;2023-02-15T00:55:11;30.33;;;17.53;;
74170;SDS011;62526;50.948;6.590;2023-02-15T00:57:38;38.67;;;18.57;;
74170;SDS011;62526;50.948;6.590;2023-02-15T01:00:05;38.37;;;19.80;;
74170;SDS011;62526;50.948;6.590;2023-02-15T01:02:34;40.67;;;19.90;;
74170;SDS011;62526;50.948;6.590;2023-02-15T01:05:00;39.93;;;19.20;;
74170;SDS011;62526;50.948;6.590;2023-02-15T01:07:28;43.30;;;21.40;;
74170;SDS011;62526;50.948;6.590;2023-02-15T01:09:55;43.13;;;19.70;;
74170;SDS011;62526;50.948;6.590;2023-02-15T01:12:22;39.80;;;20.57;;
74170;SDS011;62526;50.948;6.590;2023-02-15T01:14:48;40.03;;;20.93;;
74170;SDS011;62526;50.948;6.590;2023-02-15T01:17:16;37.90;;;18.97;;
74170;SDS011;62526;50.948;6.590;2023-02-15T01:19:42;38.90;;;19.90;;
74170;SDS011;62526;50.948;6.590;2023-02-15T01:22:09;38.27;;;19.93;;
74170;SDS011;62526;50.948;6.590;2023-02-15T01:24:36;36.83;;;19.63;;
74170;SDS011;62526;50.948;6.590;2023-02-15T01:27:02;36.37;;;18.40;;
74170;SDS011;62526;50.948;6.590;2023-02-15T01:29:30;40.07;;;19.53;;
74170;SDS011;62526;50.948;6.590;2023-02-15T01:31:56;40.03;;;20.60;;
74170;SDS011;62526;50.948;6.590;2023-02-15T01:34:23;42.17;;;21.40;;
74170;SDS011;62526;50.948;6.590;2023-02-15T01:36:50;41.57;;;21.40;;
74170;SDS011;62526;50.948;6.590;2023-02-15T01:39:16;36.70;;;19.47;;
74170;SDS011;62526;50.948;6.590;2023-02-15T01:41:43;40.10;;;20.30;;
74170;SDS011;62526;50.948;6.590;2023-02-15T01:46:50;40.73;;;21.20;;
74170;SDS011;62526;50.948;6.590;2023-02-15T01:49:15;45.30;;;21.13;;
74170;SDS011;62526;50.948;6.590;2023-02-15T01:51:42;44.37;;;21.60;;
74170;SDS011;62526;50.948;6.590;2023-02-15T01:54:10;41.17;;;21.07;;
74170;SDS011;62526;50.948;6.590;2023-02-15T01:56:37;36.73;;;20.53;;
74170;SDS011;62526;50.948;6.590;2023-02-15T01:59:06;39.97;;;20.67;;
74170;SDS011;62526;50.948;6.590;2023-02-15T02:01:32;40.43;;;20.83;;
74170;SDS011;62526;50.948;6.590;2023-02-15T02:04:04;48.87;;;21.10;;
74170;SDS011;62526;50.948;6.590;2023-02-15T02:06:31;41.23;;;20.80;;
74170;SDS011;62526;50.948;6.590;2023-02-15T02:08:59;37.83;;;19.73;;
74170;SDS011;62526;50.948;6.590;2023-02-15T02:11:25;43.53;;;19.07;;
74170;SDS011;62526;50.948;6.590;2023-02-15T02:13:52;40.37;;;21.50;;
74170;SDS011;62526;50.948;6.590;2023-02-15T02:16:23;39.83;;;20.83;;
74170;SDS011;62526;50.948;6.590;2023-02-15T02:18:52;38.53;;;20.13;;
74170;SDS011;62526;50.948;6.590;2023-02-15T02:21:30;38.50;;;19.73;;
74170;SDS011;62526;50.948;6.590;2023-02-15T02:24:23;38.13;;;20.27;;
74170;SDS011;62526;50.948;6.590;2023-02-15T02:27:14;35.70;;;19.17;;
74170;SDS011;62526;50.948;6.590;2023-02-15T02:29:52;44.53;;;21.07;;
74170;SDS011;62526;50.948;6.590;2023-02-15T02:32:27;40.00;;;19.43;;
74170;SDS011;62526;50.948;6.590;2023-02-15T02:34:53;38.97;;;19.83;;
74170;SDS011;62526;50.948;6.590;2023-02-15T02:37:27;41.43;;;20.97;;
74170;SDS011;62526;50.948;6.590;2023-02-15T02:40:05;40.37;;;20.30;;
74170;SDS011;62526;50.948;6.590;2023-02-15T02:45:32;40.23;;;21.10;;
74170;SDS011;62526;50.948;6.590;2023-02-15T02:48:13;40.37;;;21.77;;
74170;SDS011;62526;50.948;6.590;2023-02-15T02:53:25;39.30;;;20.33;;
74170;SDS011;62526;50.948;6.590;2023-02-15T02:55:53;44.83;;;21.03;;
74170;SDS011;62526;50.948;6.590;2023-02-15T02:58:22;41.17;;;19.83;;
74170;SDS011;62526;50.948;6.590;2023-02-15T03:00:53;38.43;;;20.37;;
74170;SDS011;62526;50.948;6.590;2023-02-15T03:03:56;41.53;;;20.80;;
74170;SDS011;62526;50.948;6.590;2023-02-15T03:06:10;46.27;;;20.63;;
74170;SDS011;62526;50.948;6.590;2023-02-15T03:08:40;39.50;;;20.63;;
74170;SDS011;62526;50.948;6.590;2023-02-15T03:11:03;37.40;;;19.30;;
74170;SDS011;62526;50.948;6.590;2023-02-15T03:13:29;42.90;;;20.77;;
74170;SDS011;62526;50.948;6.590;2023-02-15T03:15:56;42.87;;;20.90;;
74170;SDS011;62526;50.948;6.590;2023-02-15T03:18:30;38.57;;;20.30;;
74170;SDS011;62526;50.948;6.590;2023-02-15T03:20:56;34.87;;;19.17;;
74170;SDS011;62526;50.948;6.590;2023-02-15T03:23:24;39.33;;;20.27;;
74170;SDS011;62526;50.948;6.590;2023-02-15T03:25:52;45.10;;;20.27;;
74170;SDS011;62526;50.948;6.590;2023-02-15T03:28:19;45.87;;;19.97;;
74170;SDS011;62526;50.948;6.590;2023-02-15T03:30:45;43.70;;;22.23;;
74170;SDS011;62526;50.948;6.590;2023-02-15T03:33:12;48.00;;;22.27;;
74170;SDS011;62526;50.948;6.590;2023-02-15T03:35:41;38.57;;;19.87;;
74170;SDS011;62526;50.948;6.590;2023-02-15T03:38:17;39.63;;;21.83;;
74170;SDS011;62526;50.948;6.590;2023-02-15T03:40:42;41.87;;;19.97;;
74170;SDS011;62526;50.948;6.590;2023-02-15T03:43:17;37.67;;;19.40;;
74170;SDS011;62526;50.948;6.590;2023-02-15T03:45:46;40.53;;;20.37;;
74170;SDS011;62526;50.948;6.590;2023-02-15T03:48:12;41.57;;;21.43;;
74170;SDS011;62526;50.948;6.590;2023-02-15T03:53:24;43.07;;;19.67;;
74170;SDS011;62526;50.948;6.590;2023-02-15T03:55:53;41.90;;;20.43;;
74170;SDS011;62526;50.948;6.590;2023-02-15T03:58:20;43.87;;;20.10;;
74170;SDS011;62526;50.948;6.590;2023-02-15T04:00:57;45.57;;;22.33;;
74170;SDS011;62526;50.948;6.590;2023-02-15T04:03:33;47.53;;;22.03;;
74170;SDS011;62526;50.948;6.590;2023-02-15T04:05:58;43.60;;;21.17;;
74170;SDS011;62526;50.948;6.590;2023-02-15T04:08:25;43.00;;;22.10;;
74170;SDS011;62526;50.948;6.590;2023-02-15T04:10:51;47.73;;;21.57;;
74170;SDS011;62526;50.948;6.590;2023-02-15T04:13:19;44.10;;;21.80;;
74170;SDS011;62526;50.948;6.590;2023-02-15T04:15:45;44.23;;;21.77;;
74170;SDS011;62526;50.948;6.590;2023-02-15T04:18:19;50.43;;;23.23;;
74170;SDS011;62526;50.948;6.590;2023-02-15T04:20:46;43.77;;;21.80;;
74170;SDS011;62526;50.948;6.590;2023-02-15T04:23:18;48.47;;;22.07;;
74170;SDS011;62526;50.948;6.590;2023-02-15T04:25:50;43.60;;;21.63;;
74170;SDS011;62526;50.948;6.590;2023-02-15T04:28:17;43.73;;;21.83;;
74170;SDS011;62526;50.948;6.590;2023-02-15T04:30:43;43.20;;;21.80;;
74170;SDS011;62526;50.948;6.590;2023-02-15T04:33:10;41.17;;;21.90;;
74170;SDS011;62526;50.948;6.590;2023-02-15T04:35:37;42.40;;;21.07;;
74170;SDS011;62526;50.948;6.590;2023-02-15T04:38:03;42.80;;;22.37;;
74170;SDS011;62526;50.948;6.590;2023-02-15T04:40:30;43.00;;;20.33;;
74170;SDS011;62526;50.948;6.590;2023-02-15T04:42:56;43.20;;;21.67;;
74170;SDS011;62526;50.948;6.590;2023-02-15T04:45:24;42.33;;;20.83;;
74170;SDS011;62526;50.948;6.590;2023-02-15T04:47:51;42.13;;;20.27;;
74170;SDS011;62526;50.948;6.590;2023-02-15T04:53:03;39.57;;;20.57;;
74170;SDS011;62526;50.948;6.590;2023-02-15T04:55:30;44.23;;;21.83;;
74170;SDS011;62526;50.948;6.590;2023-02-15T04:57:56;36.70;;;19.70;;
74170;SDS011;62526;50.948;6.590;2023-02-15T05:00:23;44.10;;;20.77;;
74170;SDS011;62526;50.948;6.590;2023-02-15T05:02:50;42.40;;;20.57;;
74170;SDS011;62526;50.948;6.590;2023-02-15T05:05:16;42.53;;;21.93;;
74170;SDS011;62526;50.948;6.590;2023-02-15T05:07:43;40.27;;;19.87;;
74170;SDS011;62526;50.948;6.590;2023-02-15T05:10:09;39.67;;;19.77;;
74170;SDS011;62526;50.948;6.590;2023-02-15T05:12:36;38.97;;;18.77;;
74170;SDS011;62526;50.948;6.590;2023-02-15T05:15:03;42.57;;;21.40;;
74170;SDS011;62526;50.948;6.590;2023-02-15T05:17:29;43.07;;;20.97;;
74170;SDS011;62526;50.948;6.590;2023-02-15T05:19:56;41.20;;;21.17;;
74170;SDS011;62526;50.948;6.590;2023-02-15T05:22:22;46.33;;;22.17;;
74170;SDS011;62526;50.948;6.590;2023-02-15T05:24:49;40.90;;;20.30;;
74170;SDS011;62526;50.948;6.590;2023-02-15T05:27:21;44.83;;;21.77;;
74170;SDS011;62526;50.948;6.590;2023-02-15T05:29:54;46.60;;;20.63;;
74170;SDS011;62526;50.948;6.590;2023-02-15T05:32:20;45.43;;;22.33;;
74170;SDS011;62526;50.948;6.590;2023-02-15T05:34:48;41.57;;;21.00;;
74170;SDS011;62526;50.948;6.590;2023-02-15T05:37:14;42.10;;;20.30;;
74170;SDS011;62526;50.948;6.590;2023-02-15T05:39:41;45.30;;;20.23;;
74170;SDS011;62526;50.948;6.590;2023-02-15T05:42:07;40.77;;;21.03;;
74170;SDS011;62526;50.948;6.590;2023-02-15T05:44:34;51.60;;;19.73;;
74170;SDS011;62526;50.948;6.590;2023-02-15T05:47:01;45.63;;;21.77;;
74170;SDS011;62526;50.948;6.590;2023-02-15T05:49:28;40.87;;;20.03;;
74170;SDS011;62526;50.948;6.590;2023-02-15T05:51:54;46.63;;;21.53;;
74170;SDS011;62526;50.948;6.590;2023-02-15T05:54:21;43.33;;;20.63;;
74170;SDS011;62526;50.948;6.590;2023-02-15T05:56:47;42.13;;;21.20;;
74170;SDS011;62526;50.948;6.590;2023-02-15T05:59:14;48.20;;;22.27;;
74170;SDS011;62526;50.948;6.590;2023-02-15T06:01:41;40.27;;;21.27;;
74170;SDS011;62526;50.948;6.590;2023-02-15T06:04:07;48.37;;;21.17;;
74170;SDS011;62526;50.948;6.590;2023-02-15T06:06:35;44.97;;;23.10;;
74170;SDS011;62526;50.948;6.590;2023-02-15T06:09:01;47.33;;;21.57;;
74170;SDS011;62526;50.948;6.590;2023-02-15T06:11:28;49.60;;;21.33;;
74170;SDS011;62526;50.948;6.590;2023-02-15T06:13:54;41.03;;;20.37;;
74170;SDS011;62526;50.948;6.590;2023-02-15T06:16:21;43.50;;;21.90;;
74170;SDS011;62526;50.948;6.590;2023-02-15T06:18:48;48.57;;;22.47;;
74170;SDS011;62526;50.948;6.590;2023-02-15T06:21:14;42.50;;;20.70;;
74170;SDS011;62526;50.948;6.590;2023-02-15T06:23:41;45.40;;;22.43;;
74170;SDS011;62526;50.948;6.590;2023-02-15T06:26:08;46.30;;;21.60;;
74170;SDS011;62526;50.948;6.590;2023-02-15T06:28:35;39.40;;;19.83;;
74170;SDS011;62526;50.948;6.590;2023-02-15T06:31:02;42.97;;;20.67;;
74170;SDS011;62526;50.948;6.590;2023-02-15T06:33:29;41.20;;;20.60;;
74170;SDS011;62526;50.948;6.590;2023-02-15T06:35:56;43.33;;;21.50;;
74170;SDS011;62526;50.948;6.590;2023-02-15T06:38:23;44.50;;;21.07;;
74170;SDS011;62526;50.948;6.590;2023-02-15T06:40:49;42.53;;;21.13;;
74170;SDS011;62526;50.948;6.590;2023-02-15T06:43:16;48.73;;;21.20;;
74170;SDS011;62526;50.948;6.590;2023-02-15T06:45:43;47.00;;;22.10;;
74170;SDS011;62526;50.948;6.590;2023-02-15T06:48:09;41.20;;;20.20;;
74170;SDS011;62526;50.948;6.590;2023-02-15T06:53:22;48.87;;;21.13;;
74170;SDS011;62526;50.948;6.590;2023-02-15T06:55:48;46.17;;;21.77;;
74170;SDS011;62526;50.948;6.590;2023-02-15T06:58:15;44.97;;;21.37;;
74170;SDS011;62526;50.948;6.590;2023-02-15T07:00:42;42.50;;;20.40;;
74170;SDS011;62526;50.948;6.590;2023-02-15T07:03:13;46.97;;;20.10;;
74170;SDS011;62526;50.948;6.590;2023-02-15T07:05:38;40.70;;;20.17;;
74170;SDS011;62526;50.948;6.590;2023-02-15T07:08:07;48.60;;;21.23;;
74170;SDS011;62526;50.948;6.590;2023-02-15T07:10:33;46.57;;;21.20;;
74170;SDS011;62526;50.948;6.590;2023-02-15T07:13:00;47.63;;;23.00;;
74170;SDS011;62526;50.948;6.590;2023-02-15T07:15:26;43.03;;;21.57;;
74170;SDS011;62526;50.948;6.590;2023-02-15T07:17:53;43.20;;;20.43;;
74170;SDS011;62526;50.948;6.590;2023-02-15T07:20:21;45.13;;;21.33;;
74170;SDS011;62526;50.948;6.590;2023-02-15T07:22:47;49.20;;;23.00;;
74170;SDS011;62526;50.948;6.590;2023-02-15T07:25:13;45.03;;;21.53;;
74170;SDS011;62526;50.948;6.590;2023-02-15T07:27:41;44.43;;;21.63;;
74170;SDS011;62526;50.948;6.590;2023-02-15T07:30:08;46.27;;;23.03;;
74170;SDS011;62526;50.948;6.590;2023-02-15T07:32:35;44.03;;;23.10;;
74170;SDS011;62526;50.948;6.590;2023-02-15T07:35:02;45.23;;;20.90;;
74170;SDS011;62526;50.948;6.590;2023-02-15T07:37:29;46.90;;;22.00;;
74170;SDS011;62526;50.948;6.590;2023-02-15T07:39:56;45.37;;;23.03;;
74170;SDS011;62526;50.948;6.590;2023-02-15T07:42:23;48.37;;;22.67;;
74170;SDS011;62526;50.948;6.590;2023-02-15T07:44:50;45.67;;;22.20;;
74170;SDS011;62526;50.948;6.590;2023-02-15T07:47:16;48.83;;;21.23;;
74170;SDS011;62526;50.948;6.590;2023-02-15T07:49:43;49.83;;;23.00;;
74170;SDS011;62526;50.948;6.590;2023-02-15T07:52:10;48.00;;;22.37;;
74170;SDS011;62526;50.948;6.590;2023-02-15T07:54:36;48.07;;;21.37;;
74170;SDS011;62526;50.948;6.590;2023-02-15T07:57:03;44.50;;;20.90;;
74170;SDS011;62526;50.948;6.590;2023-02-15T08:10:18;44.43;;;21.87;;
74170;SDS011;62526;50.948;6.590;2023-02-15T08:18:19;43.77;;;22.13;;
74170;SDS011;62526;50.948;6.590;2023-02-15T08:26:18;43.87;;;19.53;;
74170;SDS011;62526;50.948;6.590;2023-02-15T08:48:01;39.37;;;20.53;;
74170;SDS011;62526;50.948;6.590;2023-02-15T09:07:14;32.00;;;16.70;;
74170;SDS011;62526;50.948;6.590;2023-02-15T09:09:59;33.20;;;17.77;;
74170;SDS011;62526;50.948;6.590;2023-02-15T09:26:42;34.00;;;18.63;;
74170;SDS011;62526;50.948;6.590;2023-02-15T09:29:08;35.67;;;17.40;;
74170;SDS011;62526;50.948;6.590;2023-02-15T09:31:37;31.07;;;15.90;;
74170;SDS011;62526;50.948;6.590;2023-02-15T09:34:03;32.57;;;16.80;;
74170;SDS011;62526;50.948;6.590;2023-02-15T09:36:31;29.50;;;16.10;;
74170;SDS011;62526;50.948;6.590;2023-02-15T09:38:59;33.27;;;17.47;;
74170;SDS011;62526;50.948;6.590;2023-02-15T09:41:35;38.37;;;17.77;;
74170;SDS011;62526;50.948;6.590;2023-02-15T09:47:20;36.87;;;15.67;;
74170;SDS011;62526;50.948;6.590;2023-02-15T09:51:15;29.40;;;15.67;;
74170;SDS011;62526;50.948;6.590;2023-02-15T09:53:09;33.63;;;15.57;;
74170;SDS011;62526;50.948;6.590;2023-02-15T09:55:38;27.83;;;15.77;;
74170;SDS011;62526;50.948;6.590;2023-02-15T10:00:45;30.70;;;15.10;;
74170;SDS011;62526;50.948;6.590;2023-02-15T10:03:18;30.00;;;14.60;;
74170;SDS011;62526;50.948;6.590;2023-02-15T10:05:50;24.17;;;15.17;;
74170;SDS011;62526;50.948;6.590;2023-02-15T10:08:21;29.30;;;15.83;;
74170;SDS011;62526;50.948;6.590;2023-02-15T10:13:42;28.10;;;14.63;;
74170;SDS011;62526;50.948;6.590;2023-02-15T10:16:17;28.63;;;15.10;;
74170;SDS011;62526;50.948;6.590;2023-02-15T10:18:55;23.93;;;14.67;;
74170;SDS011;62526;50.948;6.590;2023-02-15T10:21:33;25.63;;;14.27;;
74170;SDS011;62526;50.948;6.590;2023-02-15T10:26:44;30.07;;;14.37;;
74170;SDS011;62526;50.948;6.590;2023-02-15T10:29:19;27.03;;;14.37;;
74170;SDS011;62526;50.948;6.590;2023-02-15T10:31:47;26.47;;;13.83;;
74170;SDS011;62526;50.948;6.590;2023-02-15T10:34:18;28.97;;;16.57;;
74170;SDS011;62526;50.948;6.590;2023-02-15T10:36:50;26.33;;;14.90;;
74170;SDS011;62526;50.948;6.590;2023-02-15T10:39:22;25.93;;;13.80;;
74170;SDS011;62526;50.948;6.590;2023-02-15T10:41:54;29.40;;;13.90;;
74170;SDS011;62526;50.948;6.590;2023-02-15T10:47:28;25.23;;;15.40;;
74170;SDS011;62526;50.948;6.590;2023-02-15T10:50:11;27.43;;;15.13;;
74170;SDS011;62526;50.948;6.590;2023-02-15T10:55:30;25.90;;;14.47;;
74170;SDS011;62526;50.948;6.590;2023-02-15T11:00:55;30.57;;;16.00;;
74170;SDS011;62526;50.948;6.590;2023-02-15T11:03:31;25.00;;;14.70;;
74170;SDS011;62526;50.948;6.590;2023-02-15T11:06:05;25.33;;;14.17;;
74170;SDS011;62526;50.948;6.590;2023-02-15T11:42:40;23.35;;;13.55;;
74170;SDS011;62526;50.948;6.590;2023-02-15T11:45:57;27.73;;;15.93;;
74170;SDS011;62526;50.948;6.590;2023-02-15T11:48:09;29.87;;;14.67;;
74170;SDS011;62526;50.948;6.590;2023-02-15T11:53:42;24.40;;;14.23;;
74170;SDS011;62526;50.948;6.590;2023-02-15T11:56:42;23.83;;;14.23;;
74170;SDS011;62526;50.948;6.590;2023-02-15T11:59:10;19.35;;;13.20;;
74170;SDS011;62526;50.948;6.590;2023-02-15T12:01:36;20.12;;;13.00;;
74170;SDS011;62526;50.948;6.590;2023-02-15T12:15:40;23.12;;;13.05;;
74170;SDS011;62526;50.948;6.590;2023-02-15T12:20:53;28.25;;;13.73;;
74170;SDS011;62526;50.948;6.590;2023-02-15T12:26:07;22.20;;;13.30;;
74170;SDS011;62526;50.948;6.590;2023-02-15T12:28:34;39.10;;;14.10;;
74170;SDS011;62526;50.948;6.590;2023-02-15T12:31:03;21.00;;;13.00;;
74170;SDS011;62526;50.948;6.590;2023-02-15T12:33:31;23.38;;;12.10;;
74170;SDS011;62526;50.948;6.590;2023-02-15T12:35:57;22.98;;;14.00;;
74170;SDS011;62526;50.948;6.590;2023-02-15T12:38:25;22.02;;;13.23;;
74170;SDS011;62526;50.948;6.590;2023-02-15T12:41:04;20.80;;;12.50;;
74170;SDS011;62526;50.948;6.590;2023-02-15T12:43:37;24.73;;;13.55;;
74170;SDS011;62526;50.948;6.590;2023-02-15T12:48:38;33.97;;;14.10;;
74170;SDS011;62526;50.948;6.590;2023-02-15T12:51:07;23.38;;;12.68;;
74170;SDS011;62526;50.948;6.590;2023-02-15T12:53:34;21.67;;;12.63;;
74170;SDS011;62526;50.948;6.590;2023-02-15T12:56:03;19.27;;;12.40;;
74170;SDS011;62526;50.948;6.590;2023-02-15T13:01:16;22.08;;;12.15;;
74170;SDS011;62526;50.948;6.590;2023-02-15T13:06:18;22.95;;;12.65;;
74170;SDS011;62526;50.948;6.590;2023-02-15T13:08:47;21.87;;;12.27;;
74170;SDS011;62526;50.948;6.590;2023-02-15T13:11:13;22.13;;;12.90;;
74170;SDS011;62526;50.948;6.590;2023-02-15T13:16:13;20.73;;;12.40;;
74170;SDS011;62526;50.948;6.590;2023-02-15T13:18:44;18.40;;;11.95;;
74170;SDS011;62526;50.948;6.590;2023-02-15T13:21:10;20.35;;;12.37;;
74170;SDS011;62526;50.948;6.590;2023-02-15T13:23:37;19.48;;;12.63;;
74170;SDS011;62526;50.948;6.590;2023-02-15T13:26:04;22.65;;;12.82;;
74170;SDS011;62526;50.948;6.590;2023-02-15T14:00:01;21.42;;;11.95;;
74170;SDS011;62526;50.948;6.590;2023-02-15T14:02:38;19.75;;;12.35;;
74170;SDS011;62526;50.948;6.590;2023-02-15T14:08:11;21.05;;;11.90;;
74170;SDS011;62526;50.948;6.590;2023-02-15T14:10:41;21.23;;;11.98;;
74170;SDS011;62526;50.948;6.590;2023-02-15T14:16:03;20.70;;;11.35;;
74170;SDS011;62526;50.948;6.590;2023-02-15T14:18:35;22.52;;;11.45;;
74170;SDS011;62526;50.948;6.590;2023-02-15T15:00:00;29.08;;;14.70;;
74170;SDS011;62526;50.948;6.590;2023-02-15T15:02:29;34.38;;;14.90;;
74170;SDS011;62526;50.948;6.590;2023-02-15T15:05:33;29.20;;;15.57;;
74170;SDS011;62526;50.948;6.590;2023-02-15T15:07:46;26.37;;;15.57;;
74170;SDS011;62526;50.948;6.590;2023-02-15T15:12:59;27.08;;;15.70;;
74170;SDS011;62526;50.948;6.590;2023-02-15T15:15:34;24.00;;;16.12;;
74170;SDS011;62526;50.948;6.590;2023-02-15T15:18:09;26.58;;;15.32;;
74170;SDS011;62526;50.948;6.590;2023-02-15T15:20:45;26.62;;;15.25;;
74170;SDS011;62526;50.948;6.590;2023-02-15T15:28:52;28.05;;;15.57;;
74170;SDS011;62526;50.948;6.590;2023-02-15T15:31:20;26.65;;;14.32;;
74170;SDS011;62526;50.948;6.590;2023-02-15T15:34:14;26.15;;;14.40;;
74170;SDS011;62526;50.948;6.590;2023-02-15T15:42:11;26.73;;;14.48;;
74170;SDS011;62526;50.948;6.590;2023-02-15T15:44:43;25.98;;;13.82;;
74170;SDS011;62526;50.948;6.590;2023-02-15T15:47:20;23.00;;;12.75;;
74170;SDS011;62526;50.948;6.590;2023-02-15T15:49:50;24.20;;;13.68;;
74170;SDS011;62526;50.948;6.590;2023-02-15T15:52:17;24.58;;;11.60;;
74170;SDS011;62526;50.948;6.590;2023-02-15T15:54:44;19.52;;;12.23;;
74170;SDS011;62526;50.948;6.590;2023-02-15T15:57:14;23.90;;;11.98;;
74170;SDS011;62526;50.948;6.590;2023-02-15T15:59:43;21.33;;;12.50;;
74170;SDS011;62526;50.948;6.590;2023-02-15T16:02:09;21.30;;;12.68;;
74170;SDS011;62526;50.948;6.590;2023-02-15T16:04:34;28.35;;;12.50;;
74170;SDS011;62526;50.948;6.590;2023-02-15T16:09:39;20.65;;;12.60;;
74170;SDS011;62526;50.948;6.590;2023-02-15T16:12:11;25.60;;;12.43;;
74170;SDS011;62526;50.948;6.590;2023-02-15T16:14:35;20.25;;;12.18;;
74170;SDS011;62526;50.948;6.590;2023-02-15T16:17:02;24.50;;;12.25;;
74170;SDS011;62526;50.948;6.590;2023-02-15T16:19:30;20.33;;;11.93;;
74170;SDS011;62526;50.948;6.590;2023-02-15T16:21:57;20.98;;;12.02;;
74170;SDS011;62526;50.948;6.590;2023-02-15T16:24:26;24.87;;;12.27;;
74170;SDS011;62526;50.948;6.590;2023-02-15T16:27:18;23.08;;;12.10;;
74170;SDS011;62526;50.948;6.590;2023-02-15T16:29:44;24.17;;;11.52;;
74170;SDS011;62526;50.948;6.590;2023-02-15T16:32:17;22.23;;;11.38;;
74170;SDS011;62526;50.948;6.590;2023-02-15T16:37:17;18.37;;;11.77;;
74170;SDS011;62526;50.948;6.590;2023-02-15T16:39:44;17.02;;;11.30;;
74170;SDS011;62526;50.948;6.590;2023-02-15T16:42:11;24.50;;;11.97;;
74170;SDS011;62526;50.948;6.590;2023-02-15T16:44:39;20.57;;;11.80;;
74170;SDS011;62526;50.948;6.590;2023-02-15T16:47:07;25.00;;;12.67;;
74170;SDS011;62526;50.948;6.590;2023-02-15T16:49:32;18.40;;;11.47;;
74170;SDS011;62526;50.948;6.590;2023-02-15T16:52:02;19.73;;;11.52;;
74170;SDS011;62526;50.948;6.590;2023-02-15T16:54:29;25.63;;;12.30;;
74170;SDS011;62526;50.948;6.590;2023-02-15T16:56:55;21.13;;;12.97;;
74170;SDS011;62526;50.948;6.590;2023-02-15T17:01:55;18.57;;;12.40;;
74170;SDS011;62526;50.948;6.590;2023-02-15T17:04:26;21.47;;;12.33;;
74170;SDS011;62526;50.948;6.590;2023-02-15T17:07:23;25.77;;;12.80;;
74170;SDS011;62526;50.948;6.590;2023-02-15T17:09:49;18.67;;;11.97;;
74170;SDS011;62526;50.948;6.590;2023-02-15T17:15:23;21.77;;;12.23;;
74170;SDS011;62526;50.948;6.590;2023-02-15T17:17:33;29.47;;;13.00;;
74170;SDS011;62526;50.948;6.590;2023-02-15T17:20:00;29.73;;;13.63;;
74170;SDS011;62526;50.948;6.590;2023-02-15T17:22:27;23.67;;;14.37;;
74170;SDS011;62526;50.948;6.590;2023-02-15T17:24:58;25.93;;;13.67;;
74170;SDS011;62526;50.948;6.590;2023-02-15T17:27:25;26.20;;;12.60;;
74170;SDS011;62526;50.948;6.590;2023-02-15T17:29:55;24.17;;;13.13;;
74170;SDS011;62526;50.948;6.590;2023-02-15T17:32:25;24.00;;;13.37;;
74170;SDS011;62526;50.948;6.590;2023-02-15T17:35:04;23.33;;;14.10;;
74170;SDS011;62526;50.948;6.590;2023-02-15T17:37:41;23.90;;;13.00;;
74170;SDS011;62526;50.948;6.590;2023-02-15T17:40:21;27.70;;;11.60;;
74170;SDS011;62526;50.948;6.590;2023-02-15T17:42:51;23.60;;;14.03;;
74170;SDS011;62526;50.948;6.590;2023-02-15T17:45:19;26.17;;;14.37;;
74170;SDS011;62526;50.948;6.590;2023-02-15T17:47:48;28.07;;;16.63;;
74170;SDS011;62526;50.948;6.590;2023-02-15T17:50:20;27.27;;;14.50;;
74170;SDS011;62526;50.948;6.590;2023-02-15T17:53:07;26.77;;;14.63;;
74170;SDS011;62526;50.948;6.590;2023-02-15T17:55:35;25.27;;;14.97;;
74170;SDS011;62526;50.948;6.590;2023-02-15T17:58:05;25.47;;;14.63;;
74170;SDS011;62526;50.948;6.590;2023-02-15T18:00:32;27.17;;;16.87;;
74170;SDS011;62526;50.948;6.590;2023-02-15T18:03:06;26.40;;;15.57;;
74170;SDS011;62526;50.948;6.590;2023-02-15T18:05:37;26.60;;;16.13;;
74170;SDS011;62526;50.948;6.590;2023-02-15T18:08:13;27.23;;;14.93;;
74170;SDS011;62526;50.948;6.590;2023-02-15T18:10:46;24.93;;;14.37;;
74170;SDS011;62526;50.948;6.590;2023-02-15T18:13:20;22.30;;;13.17;;
74170;SDS011;62526;50.948;6.590;2023-02-15T18:15:47;23.70;;;13.47;;
74170;SDS011;62526;50.948;6.590;2023-02-15T18:18:15;27.27;;;13.73;;
74170;SDS011;62526;50.948;6.590;2023-02-15T18:20:42;25.47;;;14.00;;
74170;SDS011;62526;50.948;6.590;2023-02-15T18:23:13;23.77;;;14.17;;
74170;SDS011;62526;50.948;6.590;2023-02-15T18:25:39;28.30;;;14.27;;
74170;SDS011;62526;50.948;6.590;2023-02-15T18:28:06;24.50;;;13.77;;
74170;SDS011;62526;50.948;6.590;2023-02-15T18:30:35;27.47;;;16.63;;
74170;SDS011;62526;50.948;6.590;2023-02-15T18:33:01;25.47;;;16.57;;
74170;SDS011;62526;50.948;6.590;2023-02-15T18:35:29;28.03;;;16.53;;
74170;SDS011;62526;50.948;6.590;2023-02-15T18:37:54;34.07;;;18.70;;
74170;SDS011;62526;50.948;6.590;2023-02-15T18:40:23;37.97;;;20.33;;
74170;SDS011;62526;50.948;6.590;2023-02-15T18:42:48;47.50;;;25.00;;
74170;SDS011;62526;50.948;6.590;2023-02-15T18:45:16;48.17;;;26.23;;
74170;SDS011;62526;50.948;6.590;2023-02-15T18:47:42;43.23;;;24.70;;
74170;SDS011;62526;50.948;6.590;2023-02-15T18:50:09;32.67;;;17.80;;
74170;SDS011;62526;50.948;6.590;2023-02-15T18:52:36;28.17;;;15.60;;
74170;SDS011;62526;50.948;6.590;2023-02-15T18:55:03;24.80;;;14.87;;
74170;SDS011;62526;50.948;6.590;2023-02-15T18:57:29;23.27;;;14.10;;
74170;SDS011;62526;50.948;6.590;2023-02-15T18:59:56;24.40;;;14.73;;
74170;SDS011;62526;50.948;6.590;2023-02-15T19:02:22;25.80;;;14.37;;
74170;SDS011;62526;50.948;6.590;2023-02-15T19:04:50;25.23;;;15.30;;
74170;SDS011;62526;50.948;6.590;2023-02-15T19:07:19;27.67;;;14.87;;